Time;durP1;ratioP1;P1;durP2;ratioP2;P2;SDS_P1;SDS_P2;PMS_P1;PMS_P2;Temp;Humidity;BMP_temperature;BMP_pressure;BME280_temperature;BME280_humidity;BME280_pressure;Samples;Min_cycle;Max_cycle;Signal;HPM_P1;HPM_P2
2023/06/30 00:01:48;;;;;;;10.88;4.95;;;;;;;17.29;78.62;101358.19;5114097;28;20020;-64
2023/06/30 00:04:18;;;;;;;9.35;4.10;;;;;;;17.39;77.95;101367.19;5095858;28;20460;-65
2023/06/30 00:06:44;;;;;;;10.43;4.50;;;;;;;17.43;77.69;101361.41;5096014;28;20462;-64
2023/06/30 00:09:10;;;;;;;6.63;4.43;;;;;;;17.27;78.14;101369.06;5114082;28;20051;-64
2023/06/30 00:11:38;;;;;;;8.73;4.10;;;;;;;17.03;79.06;101359.38;5114074;28;20439;-64
2023/06/30 00:14:04;;;;;;;8.13;4.13;;;;;;;16.97;79.26;101362.56;5117238;27;20023;-64
2023/06/30 00:16:31;;;;;;;11.32;4.22;;;;;;;16.98;79.06;101371.47;5116058;27;20484;-64
2023/06/30 00:18:58;;;;;;;7.57;3.92;;;;;;;17.05;78.70;101366.44;5133914;27;20144;-64
2023/06/30 00:21:26;;;;;;;10.52;4.20;;;;;;;16.95;78.93;101366.34;5128153;27;20023;-64
2023/06/30 00:23:54;;;;;;;10.27;4.45;;;;;;;16.91;79.05;101360.38;5113310;28;20050;-64
2023/06/30 00:26:19;;;;;;;9.40;4.25;;;;;;;16.84;79.13;101353.78;5095557;28;20026;-64
2023/06/30 00:28:45;;;;;;;8.40;4.68;;;;;;;16.78;78.73;101346.22;5113492;28;20051;-64
2023/06/30 00:31:12;;;;;;;7.45;4.32;;;;;;;16.85;78.45;101355.47;5114115;27;20098;-64
2023/06/30 00:33:38;;;;;;;9.95;3.97;;;;;;;16.82;78.29;101355.72;5113964;28;20439;-64
2023/06/30 00:36:03;;;;;;;11.57;4.47;;;;;;;16.78;78.38;101340.84;5113593;28;20159;-64
2023/06/30 00:38:29;;;;;;;9.30;4.13;;;;;;;16.84;78.44;101347.56;5112698;28;20027;-64
2023/06/30 00:40:54;;;;;;;9.07;4.22;;;;;;;16.72;78.28;101338.63;5113309;28;20020;-64
2023/06/30 00:43:20;;;;;;;9.18;4.65;;;;;;;16.73;78.37;101343.88;5112979;28;20391;-64
2023/06/30 00:45:45;;;;;;;9.95;4.22;;;;;;;16.68;78.64;101351.47;5095079;28;20066;-64
2023/06/30 00:48:11;;;;;;;7.95;3.78;;;;;;;16.66;78.73;101349.88;5095757;28;20023;-64
2023/06/30 00:50:36;;;;;;;12.93;4.50;;;;;;;16.67;78.52;101338.16;5113490;28;20027;-64
2023/06/30 00:53:02;;;;;;;9.65;4.45;;;;;;;16.75;77.97;101343.75;5112398;28;20096;-63
2023/06/30 00:55:28;;;;;;;9.32;4.30;;;;;;;16.75;77.87;101354.50;5113114;28;20104;-64
2023/06/30 00:57:54;;;;;;;10.30;4.32;;;;;;;16.64;78.05;101336.56;5112891;28;20054;-64
2023/06/30 01:00:20;;;;;;;9.20;4.25;;;;;;;16.80;77.85;101349.66;5112994;28;20431;-64
2023/06/30 01:03:10;;;;;;;11.18;4.18;;;;;;;16.88;77.86;101351.69;5112854;28;20026;-64
2023/06/30 01:05:53;;;;;;;12.25;4.40;;;;;;;16.88;78.01;101349.00;5113802;27;20035;-64
2023/06/30 01:08:27;;;;;;;10.70;3.90;;;;;;;16.82;78.11;101347.66;5112634;28;20385;-64
2023/06/30 01:10:55;;;;;;;8.85;4.45;;;;;;;16.57;78.60;101344.25;5112843;28;20027;-64
2023/06/30 01:13:22;;;;;;;10.70;4.20;;;;;;;16.79;78.26;101351.50;5112539;28;20027;-64
2023/06/30 01:15:50;;;;;;;16.67;5.20;;;;;;;16.53;79.00;101341.94;5113022;28;20098;-63
2023/06/30 01:18:19;;;;;;;12.82;4.28;;;;;;;16.69;78.49;101360.38;5112639;28;20024;-64
2023/06/30 01:20:46;;;;;;;7.88;3.92;;;;;;;16.77;77.79;101352.59;5112949;28;20028;-63
2023/06/30 01:23:35;;;;;;;8.27;4.30;;;;;;;16.73;78.50;101361.81;5112531;27;20030;-63
2023/06/30 01:26:02;;;;;;;11.40;4.78;;;;;;;16.62;78.16;101353.78;5094325;28;20023;-64
2023/06/30 01:28:33;;;;;;;10.43;4.60;;;;;;;16.50;78.65;101361.84;5112586;28;20023;-64
2023/06/30 01:30:58;;;;;;;11.88;4.60;;;;;;;16.63;78.20;101361.72;5093702;28;20023;-63
2023/06/30 01:33:26;;;;;;;11.13;4.10;;;;;;;16.63;77.70;101360.88;5111976;28;20472;-64
2023/06/30 01:35:52;;;;;;;10.48;4.65;;;;;;;16.66;77.78;101355.25;5112467;28;20072;-63
2023/06/30 01:38:17;;;;;;;9.93;3.88;;;;;;;16.50;78.12;101360.97;5111936;28;20023;-64
2023/06/30 01:40:44;;;;;;;11.70;4.30;;;;;;;16.46;78.26;101359.53;5112938;28;20092;-63
2023/06/30 01:43:11;;;;;;;10.07;4.25;;;;;;;16.47;77.92;101350.47;5112352;28;20026;-64
2023/06/30 01:45:36;;;;;;;13.07;4.30;;;;;;;16.33;78.30;101346.25;5094362;28;20111;-64
2023/06/30 01:48:02;;;;;;;11.30;4.22;;;;;;;16.32;77.96;101334.66;5112170;28;20127;-63
2023/06/30 01:50:31;;;;;;;14.50;4.47;;;;;;;16.36;77.35;101324.50;5112456;28;20020;-64
2023/06/30 01:52:58;;;;;;;5.65;3.40;;;;;;;16.27;77.50;101336.00;5111651;28;20448;-64
2023/06/30 01:55:23;;;;;;;11.75;4.15;;;;;;;16.26;77.34;101334.25;5120445;27;20023;-64
2023/06/30 01:57:49;;;;;;;10.23;4.18;;;;;;;16.15;77.67;101337.81;5110966;28;20023;-63
2023/06/30 02:00:14;;;;;;;13.18;4.32;;;;;;;16.18;77.41;101326.84;5112037;28;20102;-64
2023/06/30 02:02:43;;;;;;;7.72;4.07;;;;;;;16.27;77.05;101328.78;5110310;28;20019;-64
2023/06/30 02:05:09;;;;;;;9.90;3.87;;;;;;;16.13;77.73;101337.91;5112096;28;20057;-64
2023/06/30 02:07:34;;;;;;;12.73;3.92;;;;;;;16.05;77.86;101334.13;5104343;28;20278;-64
2023/06/30 02:10:01;;;;;;;11.02;3.88;;;;;;;15.99;78.11;101324.72;5102157;28;20039;-64
2023/06/30 02:12:26;;;;;;;9.68;4.32;;;;;;;16.09;77.79;101328.41;5111350;28;20047;-64
2023/06/30 02:14:51;;;;;;;14.32;4.28;;;;;;;15.98;78.08;101324.88;5110758;28;20023;-64
2023/06/30 02:17:26;;;;;;;10.02;4.28;;;;;;;15.88;78.65;101330.94;5086304;28;20028;-64
2023/06/30 02:19:51;;;;;;;13.25;4.55;;;;;;;15.81;78.50;101335.06;5108899;28;20390;-64
2023/06/30 02:22:16;;;;;;;12.35;4.32;;;;;;;15.86;78.24;101330.19;5106232;28;20020;-64
2023/06/30 02:24:42;;;;;;;9.70;4.72;;;;;;;15.86;78.25;101329.34;5107541;28;20073;-64
2023/06/30 02:27:08;;;;;;;9.07;4.60;;;;;;;15.81;77.95;101320.81;5107429;28;20035;-64
2023/06/30 02:29:36;;;;;;;12.90;4.47;;;;;;;15.87;78.19;101334.59;5090976;28;20016;-63
2023/06/30 02:32:02;;;;;;;12.60;4.43;;;;;;;15.69;78.46;101333.34;5093828;28;20212;-64
2023/06/30 02:34:27;;;;;;;10.85;4.10;;;;;;;15.75;78.61;101332.84;5092581;28;20115;-64
2023/06/30 02:36:55;;;;;;;11.07;4.75;;;;;;;15.65;78.73;101343.41;5097403;28;20034;-64
2023/06/30 02:39:20;;;;;;;12.85;4.22;;;;;;;15.64;78.88;101346.19;5088103;28;20032;-64
2023/06/30 02:41:45;;;;;;;14.80;4.40;;;;;;;15.58;78.76;101352.88;5073869;28;20039;-64
2023/06/30 02:44:12;;;;;;;12.65;5.10;;;;;;;15.42;79.46;101347.00;5074959;28;20052;-64
2023/06/30 02:46:37;;;;;;;10.07;4.65;;;;;;;15.56;79.17;101357.53;5105217;28;20104;-64
2023/06/30 02:49:03;;;;;;;8.25;4.88;;;;;;;15.56;79.17;101356.66;5106313;28;20023;-64
2023/06/30 02:51:28;;;;;;;10.05;4.68;;;;;;;15.53;78.77;101356.88;5114719;28;20023;-64
2023/06/30 02:53:53;;;;;;;10.73;5.13;;;;;;;15.48;79.16;101367.97;5114356;28;20514;-64
2023/06/30 02:56:19;;;;;;;8.82;4.53;;;;;;;15.40;79.18;101363.16;5115478;28;20051;-64
2023/06/30 02:58:44;;;;;;;8.95;4.63;;;;;;;15.28;79.28;101364.09;5096933;28;20032;-64
2023/06/30 03:01:09;;;;;;;9.77;4.82;;;;;;;15.38;79.16;101357.09;5097322;28;20031;-64
2023/06/30 03:03:35;;;;;;;11.88;5.57;;;;;;;15.34;79.39;101360.97;5096893;27;20062;-64
2023/06/30 03:06:03;;;;;;;12.85;5.57;;;;;;;15.24;79.45;101361.78;5114538;27;20024;-64
2023/06/30 03:08:31;;;;;;;8.63;4.85;;;;;;;15.15;79.32;101368.66;5108546;28;20024;-64
2023/06/30 03:10:59;;;;;;;8.75;4.55;;;;;;;14.97;80.26;101354.78;5115315;28;20157;-64
2023/06/30 03:13:25;;;;;;;7.75;4.32;;;;;;;15.06;79.69;101364.84;5114837;28;20486;-64
2023/06/30 03:15:50;;;;;;;8.93;4.55;;;;;;;15.02;79.71;101354.47;5096822;28;20103;-63
2023/06/30 03:18:16;;;;;;;9.80;4.40;;;;;;;14.99;79.91;101356.38;5114996;28;20023;-64
2023/06/30 03:20:41;;;;;;;12.38;5.43;;;;;;;15.04;79.91;101360.56;5097834;27;20470;-64
2023/06/30 03:23:07;;;;;;;10.60;4.68;;;;;;;14.91;79.81;101357.91;5114156;28;20140;-64
2023/06/30 03:25:32;;;;;;;7.13;4.68;;;;;;;14.93;79.74;101347.94;5097168;28;20019;-64
2023/06/30 03:27:58;;;;;;;8.68;4.75;;;;;;;14.93;79.86;101347.94;5096456;28;20545;-64
2023/06/30 03:30:23;;;;;;;7.78;4.22;;;;;;;14.92;80.02;101347.09;5099524;28;20031;-64
2023/06/30 03:32:48;;;;;;;9.02;4.53;;;;;;;14.76;80.52;101347.38;5113852;28;20032;-64
2023/06/30 03:35:16;;;;;;;9.55;4.78;;;;;;;14.81;80.54;101344.34;5113367;28;20099;-64
2023/06/30 03:37:41;;;;;;;9.45;4.35;;;;;;;14.82;80.28;101347.88;5113772;27;20024;-64
2023/06/30 03:40:07;;;;;;;10.68;5.40;;;;;;;14.63;81.01;101348.38;5114009;28;20030;-64
2023/06/30 03:42:33;;;;;;;8.63;5.28;;;;;;;14.70;80.35;101342.44;5096382;28;20028;-64
2023/06/30 03:44:59;;;;;;;10.38;4.72;;;;;;;14.64;80.33;101340.22;5114631;28;20086;-64
2023/06/30 03:47:25;;;;;;;8.98;5.95;;;;;;;14.64;80.44;101344.72;5115023;28;20098;-64
2023/06/30 03:49:51;;;;;;;8.02;5.00;;;;;;;14.60;80.73;101343.25;5096239;28;20526;-64
2023/06/30 03:52:16;;;;;;;14.07;5.20;;;;;;;14.54;81.16;101347.22;5113757;28;20130;-63
2023/06/30 03:54:42;;;;;;;9.85;5.22;;;;;;;14.61;80.96;101337.75;5095437;27;20035;-64
2023/06/30 03:57:07;;;;;;;10.15;5.20;;;;;;;14.42;81.95;101332.84;5114555;28;20098;-65
2023/06/30 03:59:33;;;;;;;11.80;5.57;;;;;;;14.47;81.87;101336.06;5095864;28;20032;-64
2023/06/30 04:01:58;;;;;;;7.30;5.38;;;;;;;14.32;82.36;101331.78;5114175;28;20027;-64
2023/06/30 04:04:24;;;;;;;11.00;5.13;;;;;;;14.44;82.16;101336.28;5095846;28;20063;-64
2023/06/30 04:06:49;;;;;;;9.77;5.55;;;;;;;14.50;82.25;101333.16;5113988;28;20023;-63
2023/06/30 04:09:15;;;;;;;8.80;5.30;;;;;;;14.48;82.19;101337.75;5113491;28;20493;-64
2023/06/30 04:11:40;;;;;;;8.13;5.43;;;;;;;14.45;82.38;101345.16;5096025;27;20110;-64
2023/06/30 04:14:06;;;;;;;10.77;5.32;;;;;;;14.54;82.40;101345.38;5134474;27;20024;-64
2023/06/30 04:16:33;;;;;;;9.20;5.78;;;;;;;14.45;82.55;101342.47;5134566;27;20027;-64
2023/06/30 04:18:59;;;;;;;7.82;5.03;;;;;;;14.47;82.49;101340.53;5134365;27;20023;-64
2023/06/30 04:21:24;;;;;;;9.43;6.35;;;;;;;14.54;82.51;101347.22;5107809;28;20030;-64
2023/06/30 04:23:50;;;;;;;11.30;5.85;;;;;;;14.46;82.84;101349.53;5113527;28;20522;-64
2023/06/30 04:26:17;;;;;;;9.88;5.95;;;;;;;14.46;83.16;101353.06;5113924;28;20492;-64
2023/06/30 04:28:43;;;;;;;8.55;5.65;;;;;;;14.48;83.20;101347.63;5113886;28;20106;-64
2023/06/30 04:31:10;;;;;;;9.20;5.25;;;;;;;14.42;83.21;101338.19;5123732;27;20153;-64
2023/06/30 04:33:40;;;;;;;11.38;6.30;;;;;;;14.32;84.06;101343.38;5113654;28;20020;-64
2023/06/30 04:36:09;;;;;;;10.90;6.35;;;;;;;14.43;nan;101342.56;5113690;28;20031;-64
2023/06/30 04:38:34;;;;;;;10.50;5.97;;;;;;;14.37;84.00;101342.16;5113472;28;20024;-64
2023/06/30 04:41:00;;;;;;;8.43;6.00;;;;;;;14.53;84.10;101340.16;5112959;28;20019;-64
2023/06/30 04:43:25;;;;;;;10.00;6.03;;;;;;;14.58;83.85;101339.81;5112328;28;20386;-64
2023/06/30 04:45:51;;;;;;;8.02;5.70;;;;;;;14.59;83.60;101345.06;5114744;27;20022;-64
2023/06/30 04:48:18;;;;;;;12.02;5.80;;;;;;;14.62;83.45;101334.13;5120596;27;20124;-64
2023/06/30 04:50:46;;;;;;;8.25;5.97;;;;;;;14.56;83.93;101336.38;5113365;28;20084;-63
2023/06/30 04:53:14;;;;;;;10.63;5.95;;;;;;;14.60;83.88;101343.25;5112359;28;20133;-63
2023/06/30 04:55:39;;;;;;;11.93;6.35;;;;;;;14.58;83.44;101331.78;5095102;28;20023;-64
2023/06/30 04:58:05;;;;;;;9.70;6.57;;;;;;;14.64;83.60;101342.88;5112794;28;20029;-64
2023/06/30 05:00:30;;;;;;;12.35;6.68;;;;;;;14.59;83.95;101328.13;5113078;28;20477;-64
2023/06/30 05:02:58;;;;;;;10.38;5.90;;;;;;;14.62;83.65;101344.84;5113300;27;20023;-65
2023/06/30 05:05:23;;;;;;;10.60;6.57;;;;;;;14.68;83.27;101339.03;5094518;28;20020;-64
2023/06/30 05:07:53;;;;;;;13.27;6.55;;;;;;;14.74;84.08;101348.44;5094441;28;20030;-63
2023/06/30 05:10:19;;;;;;;10.32;6.10;;;;;;;14.85;83.23;101342.28;5111750;28;20028;-64
2023/06/30 05:12:45;;;;;;;9.13;5.72;;;;;;;14.94;82.64;101347.84;5113056;28;20212;-64
2023/06/30 05:15:11;;;;;;;10.07;6.18;;;;;;;15.01;82.04;101345.56;5112930;28;20375;-64
2023/06/30 05:17:36;;;;;;;10.38;6.18;;;;;;;14.92;81.60;101343.56;5112345;28;20023;-64
2023/06/30 05:20:05;;;;;;;8.13;6.00;;;;;;;15.06;80.67;101343.41;5115756;27;20023;-64
2023/06/30 05:22:30;;;;;;;8.73;6.37;;;;;;;15.15;80.34;101342.72;5133331;27;20449;-64
2023/06/30 05:24:56;;;;;;;8.88;6.25;;;;;;;15.19;80.10;101340.66;5132558;27;20027;-64
2023/06/30 05:27:23;;;;;;;13.18;6.38;;;;;;;15.20;80.10;101342.38;5117721;27;20027;-64
2023/06/30 05:29:49;;;;;;;9.20;5.47;;;;;;;15.24;80.49;101343.03;5112523;28;20124;-64
2023/06/30 05:32:14;;;;;;;11.50;6.15;;;;;;;15.32;80.01;101343.28;5090863;28;20034;-64
2023/06/30 05:34:42;;;;;;;11.95;5.70;;;;;;;15.40;79.29;101339.03;5111955;28;20081;-64
2023/06/30 05:37:09;;;;;;;11.48;5.82;;;;;;;15.48;78.73;101341.16;5068944;28;20032;-64
2023/06/30 05:39:36;;;;;;;10.45;5.45;;;;;;;15.56;78.16;101340.56;5104173;28;20043;-64
2023/06/30 05:42:01;;;;;;;7.95;5.43;;;;;;;15.55;78.82;101347.75;5110469;28;20035;-64
2023/06/30 05:44:27;;;;;;;13.15;5.88;;;;;;;15.65;78.16;101343.41;5077021;28;20629;-63
2023/06/30 05:46:52;;;;;;;9.75;5.43;;;;;;;15.69;78.77;101352.09;5085663;28;20016;-63
2023/06/30 05:49:17;;;;;;;9.02;5.65;;;;;;;15.75;77.60;101345.41;5092841;28;20019;-63
2023/06/30 05:51:45;;;;;;;10.82;5.75;;;;;;;15.87;76.95;101355.19;5094038;28;20027;-63
2023/06/30 05:54:12;;;;;;;8.15;4.97;;;;;;;15.94;76.93;101342.16;5107361;28;20096;-63
2023/06/30 05:56:37;;;;;;;11.57;5.68;;;;;;;16.03;75.95;101341.44;5100138;28;20501;-64
2023/06/30 05:59:03;;;;;;;9.48;5.03;;;;;;;16.09;75.75;101346.34;5109822;28;20035;-63
2023/06/30 06:01:28;;;;;;;7.00;4.68;;;;;;;16.08;75.63;101350.84;5111949;28;20144;-64
2023/06/30 06:03:54;;;;;;;10.32;5.00;;;;;;;16.09;75.45;101340.97;5093827;28;20020;-63
2023/06/30 06:06:22;;;;;;;6.55;4.72;;;;;;;16.18;75.30;101350.09;5111921;28;20083;-63
2023/06/30 06:08:47;;;;;;;10.05;4.78;;;;;;;16.26;74.47;101347.69;5111668;28;20485;-63
2023/06/30 06:11:13;;;;;;;9.30;4.80;;;;;;;16.40;74.83;101350.13;5112694;28;20027;-63
2023/06/30 06:13:39;;;;;;;8.30;5.07;;;;;;;16.45;73.63;101350.63;5111076;28;20037;-64
2023/06/30 06:16:05;;;;;;;8.00;4.97;;;;;;;16.45;74.65;101339.88;5108968;28;20016;-64
2023/06/30 06:18:31;;;;;;;11.45;5.15;;;;;;;16.52;73.55;101351.81;5095847;28;20115;-64
2023/06/30 06:20:57;;;;;;;11.02;4.97;;;;;;;16.63;73.09;101356.34;5115899;28;20034;-63
2023/06/30 06:23:23;;;;;;;10.73;4.97;;;;;;;16.74;71.81;101353.66;5091110;28;20040;-64
2023/06/30 06:25:49;;;;;;;8.27;4.93;;;;;;;16.70;71.57;101367.44;5105514;28;20022;-63
2023/06/30 06:28:17;;;;;;;6.35;4.80;;;;;;;16.69;71.77;101353.16;5115965;28;20036;-64
2023/06/30 06:30:44;;;;;;;7.20;4.85;;;;;;;16.83;70.55;101354.78;5115753;28;20489;-64
2023/06/30 06:33:11;;;;;;;10.68;4.75;;;;;;;16.93;71.73;101358.41;5116067;28;20031;-65
2023/06/30 06:35:37;;;;;;;8.60;4.70;;;;;;;17.01;70.12;101363.16;5097092;28;20032;-64
2023/06/30 06:38:02;;;;;;;8.10;4.55;;;;;;;17.13;70.19;101366.69;5115712;28;20085;-63
2023/06/30 06:40:28;;;;;;;13.85;4.40;;;;;;;17.14;70.43;101366.53;5114367;28;20044;-63
2023/06/30 06:42:57;;;;;;;10.90;4.45;;;;;;;17.31;70.60;101365.13;5113995;28;20020;-63
2023/06/30 06:45:23;;;;;;;10.45;3.97;;;;;;;17.41;69.53;101359.84;5113555;28;20029;-63
2023/06/30 06:48:23;;;;;;;8.93;3.88;;;;;;;17.51;69.62;101371.53;5096136;28;20027;-63
2023/06/30 06:50:57;;;;;;;9.55;3.80;;;;;;;17.54;68.05;101360.53;5084512;28;20020;-64
2023/06/30 06:53:28;;;;;;;7.47;3.20;;;;;;;17.62;66.78;101358.06;5096584;28;20419;-64
2023/06/30 06:55:55;;;;;;;7.50;3.40;;;;;;;17.77;65.08;101357.72;5103445;28;20107;-64
2023/06/30 06:58:21;;;;;;;5.43;3.10;;;;;;;17.77;64.80;101361.28;5120141;27;20031;-63
2023/06/30 07:00:51;;;;;;;7.82;2.90;;;;;;;17.79;62.96;101353.94;5114797;28;20077;-64
2023/06/30 07:03:17;;;;;;;6.20;2.88;;;;;;;18.03;62.19;101358.19;5112765;28;20023;-64
2023/06/30 07:05:44;;;;;;;9.43;3.20;;;;;;;18.03;63.07;101367.16;5115501;28;20023;-64
2023/06/30 07:08:14;;;;;;;8.13;2.78;;;;;;;18.11;61.34;101366.47;5096731;28;20543;-64
2023/06/30 07:10:44;;;;;;;9.40;3.08;;;;;;;18.16;61.50;101366.94;5096925;28;20030;-64
2023/06/30 07:13:09;;;;;;;8.27;3.05;;;;;;;18.20;60.79;101352.19;5115151;28;20095;-64
2023/06/30 07:15:35;;;;;;;13.13;3.08;;;;;;;18.29;59.72;101362.16;5106177;27;20039;-64
2023/06/30 07:18:01;;;;;;;6.25;3.05;;;;;;;18.31;59.04;101370.13;5105831;27;20490;-64
2023/06/30 07:20:26;;;;;;;8.80;3.00;;;;;;;18.49;59.47;101368.50;5088494;28;20103;-64
2023/06/30 07:22:54;;;;;;;7.40;2.55;;;;;;;18.54;60.74;101366.25;5114401;28;20114;-64
2023/06/30 07:25:19;;;;;;;6.38;2.40;;;;;;;18.82;59.89;101367.38;5111895;28;20033;-65
2023/06/30 07:27:53;;;;;;;6.13;2.45;;;;;;;18.97;58.36;101378.63;5113852;28;20024;-65
2023/06/30 07:30:20;;;;;;;7.50;2.40;;;;;;;19.01;58.05;101368.41;5112955;28;20029;-64
2023/06/30 07:32:49;;;;;;;5.00;2.85;;;;;;;19.06;58.01;101366.16;5095429;28;20023;-65
2023/06/30 07:35:15;;;;;;;5.13;2.28;;;;;;;19.26;56.60;101372.41;5095408;28;20059;-64
2023/06/30 07:37:41;;;;;;;4.72;2.15;;;;;;;19.34;55.63;101382.50;5114930;27;20070;-64
2023/06/30 07:40:07;;;;;;;5.32;2.50;;;;;;;19.42;54.06;101379.97;5113528;28;20042;-64
2023/06/30 07:42:32;;;;;;;3.90;2.13;;;;;;;19.59;53.21;101375.69;5095688;28;20474;-64
2023/06/30 07:44:58;;;;;;;7.18;2.15;;;;;;;19.56;53.17;101373.28;5096302;28;20011;-63
2023/06/30 07:47:23;;;;;;;4.53;2.17;;;;;;;19.63;53.43;101372.56;5096428;28;20031;-64
2023/06/30 07:49:48;;;;;;;6.15;2.53;;;;;;;19.83;52.71;101373.44;5114669;28;20023;-64
2023/06/30 07:52:14;;;;;;;4.45;2.10;;;;;;;19.76;52.75;101353.41;5113999;28;20092;-64
2023/06/30 07:54:41;;;;;;;9.65;2.40;;;;;;;19.95;53.04;101372.28;5102791;28;20026;-64
2023/06/30 07:57:09;;;;;;;6.88;2.28;;;;;;;20.03;51.33;101368.00;5103186;27;20032;-64
2023/06/30 07:59:35;;;;;;;5.15;2.30;;;;;;;20.10;50.91;101353.78;5089510;28;20024;-64
2023/06/30 08:02:01;;;;;;;3.88;2.08;;;;;;;20.12;50.04;101361.75;5092177;28;20031;-64
2023/06/30 08:04:29;;;;;;;7.43;2.30;;;;;;;20.12;49.78;101376.09;5111324;28;20401;-64
2023/06/30 08:06:55;;;;;;;5.20;2.50;;;;;;;20.33;50.62;101375.88;5113648;28;20106;-64
2023/06/30 08:09:20;;;;;;;6.15;2.75;;;;;;;20.38;50.29;101370.91;5111842;28;20107;-64
2023/06/30 08:11:45;;;;;;;9.00;2.72;;;;;;;20.37;48.73;101373.72;5101106;28;20046;-64
2023/06/30 08:14:11;;;;;;;5.43;2.38;;;;;;;20.48;50.27;101370.84;5120472;27;20039;-64
2023/06/30 08:16:39;;;;;;;7.47;2.53;;;;;;;20.53;50.18;101379.41;5091841;28;20031;-64
2023/06/30 08:19:04;;;;;;;5.60;2.75;;;;;;;20.54;49.24;101374.84;5092242;28;20020;-64
2023/06/30 08:21:32;;;;;;;81.82;7.70;;;;;;;20.71;49.74;101370.50;5113200;28;20031;-63
2023/06/30 08:23:57;;;;;;;4.88;2.67;;;;;;;20.80;48.80;101372.31;5112714;28;20023;-63
2023/06/30 08:26:23;;;;;;;5.82;2.33;;;;;;;20.94;47.72;101368.22;5113086;27;20455;-63
2023/06/30 08:28:48;;;;;;;5.57;2.42;;;;;;;21.08;48.36;101365.00;5095105;28;20023;-63
2023/06/30 08:31:13;;;;;;;8.60;2.40;;;;;;;21.17;47.25;101365.94;5113543;28;20020;-63
2023/06/30 08:33:39;;;;;;;4.90;2.08;;;;;;;21.32;46.98;101369.81;5113279;28;20035;-63
2023/06/30 08:36:05;;;;;;;5.95;2.15;;;;;;;21.02;46.41;101369.16;5095244;28;20035;-63
2023/06/30 08:38:30;;;;;;;4.80;2.20;;;;;;;20.81;47.37;101360.47;5094373;28;20035;-62
2023/06/30 08:40:57;;;;;;;4.85;2.03;;;;;;;20.74;48.42;101373.75;5112779;28;20585;-63
2023/06/30 08:43:24;;;;;;;6.07;2.25;;;;;;;20.69;46.99;101369.81;5112901;28;20027;-62
2023/06/30 08:45:53;;;;;;;4.47;2.13;;;;;;;20.86;48.00;101358.19;5095344;28;20027;-63
2023/06/30 08:48:20;;;;;;;6.20;2.75;;;;;;;21.07;46.37;101350.63;5113233;28;20027;-63
2023/06/30 08:50:45;;;;;;;5.57;2.53;;;;;;;21.23;47.05;101354.50;5095080;28;20020;-62
2023/06/30 08:53:11;;;;;;;6.20;2.70;;;;;;;21.40;45.65;101350.16;5112258;28;20051;-62
2023/06/30 08:55:37;;;;;;;6.40;2.40;;;;;;;21.48;43.96;101352.94;5112905;28;20020;-63
2023/06/30 08:58:07;;;;;;;5.30;2.10;;;;;;;21.36;44.49;101337.91;5113112;28;20058;-63
2023/06/30 09:00:35;;;;;;;4.97;2.38;;;;;;;21.50;45.06;101335.53;5113199;28;20028;-63
2023/06/30 09:03:04;;;;;;;5.70;1.98;;;;;;;21.61;44.96;101331.72;5112892;28;20428;-63
2023/06/30 09:05:29;;;;;;;;;;;;;;;21.89;46.00;101340.56;5113537;28;20016;-63
2023/06/30 09:07:56;;;;;;;4.85;1.90;;;;;;;21.53;45.77;101326.22;5113069;28;19915;-63
2023/06/30 09:10:33;;;;;;;6.75;2.20;;;;;;;21.67;45.25;101325.66;5112260;28;20031;-63
2023/06/30 09:13:01;;;;;;;4.95;2.05;;;;;;;21.73;45.08;101321.47;5112584;28;20423;-63
2023/06/30 09:15:26;;;;;;;6.03;2.10;;;;;;;21.85;44.86;101335.59;5112893;28;20042;-63
2023/06/30 09:17:53;;;;;;;5.88;2.10;;;;;;;21.71;43.52;101343.31;5112942;28;20394;-63
2023/06/30 09:20:21;;;;;;;5.25;1.95;;;;;;;21.82;45.69;101342.19;5112609;28;20027;-63
2023/06/30 09:22:47;;;;;;;5.57;2.30;;;;;;;21.92;43.40;101339.41;5094252;28;20030;-63
2023/06/30 09:25:29;;;;;;;7.13;3.10;;;;;;;21.95;44.47;101334.50;5111744;28;20027;-63
2023/06/30 09:27:55;;;;;;;5.22;2.38;;;;;;;21.96;42.84;101325.38;5112261;28;20073;-63
2023/06/30 09:30:50;;;;;;;5.47;2.53;;;;;;;22.22;44.24;101324.53;5094160;28;20023;-63
2023/06/30 09:33:17;;;;;;;5.20;2.15;;;;;;;22.20;43.60;101327.41;5109357;28;20043;-66
2023/06/30 09:35:44;;;;;;;5.20;2.20;;;;;;;22.31;44.87;101323.56;5112284;28;20023;-66
2023/06/30 09:38:12;;;;;;;6.07;2.20;;;;;;;22.43;41.89;101324.97;5112066;28;20020;-64
2023/06/30 09:40:41;;;;;;;5.67;2.30;;;;;;;22.60;41.30;101323.19;5094321;28;20102;-67
2023/06/30 09:43:07;;;;;;;7.15;2.42;;;;;;;22.89;41.28;101319.22;5111948;28;20119;-65
2023/06/30 09:45:33;;;;;;;7.88;2.22;;;;;;;22.93;40.48;101319.72;5112260;28;20102;-65
2023/06/30 09:47:58;;;;;;;3.85;2.10;;;;;;;22.91;40.32;101317.16;5112484;28;20077;-64
2023/06/30 09:50:25;;;;;;;5.85;2.10;;;;;;;22.92;39.41;101321.59;5112178;28;20483;-65
2023/06/30 09:52:51;;;;;;;5.50;2.33;;;;;;;22.68;41.41;101325.94;5092770;28;20498;-61
2023/06/30 09:55:17;;;;;;;3.08;1.90;;;;;;;22.67;41.48;101318.78;5111764;28;20450;-61
2023/06/30 09:57:46;;;;;;;4.97;2.30;;;;;;;22.65;40.70;101320.84;5093879;28;20051;-61
2023/06/30 10:00:16;;;;;;;4.18;1.95;;;;;;;22.71;40.72;101311.19;5112433;28;20019;-61
2023/06/30 10:02:45;;;;;;;6.80;2.17;;;;;;;22.70;40.09;101314.91;5112284;28;20048;-61
2023/06/30 10:05:10;;;;;;;5.97;2.13;;;;;;;22.82;40.83;101313.56;5112636;28;20024;-61
2023/06/30 10:07:39;;;;;;;6.32;2.40;;;;;;;22.77;40.85;101315.13;5112048;28;20536;-60
2023/06/30 10:10:07;;;;;;;;;;;;;;;23.18;42.05;101318.78;5094011;28;20386;-61
2023/06/30 10:12:35;;;;;;;5.83;1.73;;;;;;;23.21;39.14;101318.47;5111706;28;19916;-61
2023/06/30 10:15:02;;;;;;;5.43;2.75;;;;;;;23.31;38.34;101312.84;5112102;28;20031;-61
2023/06/30 10:17:29;;;;;;;4.25;1.90;;;;;;;23.38;38.07;101311.16;5093831;28;20019;-61
2023/06/30 10:19:55;;;;;;;3.85;2.05;;;;;;;23.58;38.69;101296.22;5093876;28;20023;-61
2023/06/30 10:22:21;;;;;;;6.38;2.20;;;;;;;23.48;37.52;101306.41;5093568;28;20034;-61
2023/06/30 10:24:48;;;;;;;4.15;1.80;;;;;;;23.55;37.84;101299.28;5111239;28;20093;-61
2023/06/30 10:27:18;;;;;;;6.15;2.10;;;;;;;23.43;38.45;101297.91;5112088;28;20019;-61
2023/06/30 10:29:45;;;;;;;5.15;2.08;;;;;;;23.50;38.85;101298.09;5111765;28;20024;-60
2023/06/30 10:32:14;;;;;;;6.15;2.00;;;;;;;23.42;39.74;101295.41;5112033;28;20064;-60
2023/06/30 10:34:42;;;;;;;6.70;2.35;;;;;;;23.34;39.36;101290.81;5111439;28;20024;-60
2023/06/30 10:37:07;;;;;;;14.50;3.13;;;;;;;23.72;40.25;101297.44;5093673;28;20455;-61
2023/06/30 10:39:33;;;;;;;2.72;1.90;;;;;;;23.78;36.25;101298.63;5092890;28;20031;-61
2023/06/30 10:41:59;;;;;;;4.13;1.92;;;;;;;23.87;35.90;101286.69;5093386;28;20023;-61
2023/06/30 10:44:48;;;;;;;6.32;2.00;;;;;;;24.04;38.17;101290.22;5111505;28;20019;-61
2023/06/30 10:47:17;;;;;;;5.20;1.90;;;;;;;23.72;37.48;101281.13;5101156;28;20039;-60
2023/06/30 10:49:43;;;;;;;4.78;2.00;;;;;;;24.05;38.25;101285.66;5111714;28;20031;-61
2023/06/30 10:52:25;;;;;;;5.28;1.90;;;;;;;24.19;38.21;101277.59;5111584;28;20020;-61
2023/06/30 10:54:51;;;;;;;3.70;2.03;;;;;;;24.31;36.70;101278.06;5111061;28;20023;-61
2023/06/30 10:57:23;;;;;;;3.42;1.98;;;;;;;24.37;38.81;101285.53;5093477;28;20035;-61
2023/06/30 11:00:06;;;;;;;4.93;2.22;;;;;;;24.63;38.39;101277.09;5111317;28;20452;-66
2023/06/30 11:02:34;;;;;;;3.70;2.10;;;;;;;24.94;36.94;101281.66;5111523;28;20035;-62
2023/06/30 11:05:21;;;;;;;4.30;1.95;;;;;;;25.47;36.10;101269.06;5115489;28;20019;-61
2023/06/30 11:07:54;;;;;;;4.75;1.80;;;;;;;25.44;35.48;101263.94;5114904;28;20038;-62
2023/06/30 11:10:32;;;;;;;3.88;2.10;;;;;;;25.44;35.77;101263.09;5114868;28;20032;-63
2023/06/30 11:12:58;;;;;;;3.60;2.08;;;;;;;25.13;34.92;101266.75;5115391;28;20072;-62
2023/06/30 11:15:44;;;;;;;3.55;1.90;;;;;;;25.05;36.34;101254.03;5115274;28;20026;-64
2023/06/30 11:18:12;;;;;;;4.85;2.10;;;;;;;24.82;37.31;101264.06;5115339;28;20035;-64
2023/06/30 11:20:38;;;;;;;6.13;1.88;;;;;;;24.91;37.28;101260.25;5096997;28;20031;-62
2023/06/30 11:23:06;;;;;;;4.50;2.40;;;;;;;24.73;36.10;101251.53;5114648;28;20031;-63
2023/06/30 11:25:33;;;;;;;4.00;2.30;;;;;;;24.74;36.80;101258.66;5115138;28;20517;-62